KACB/ACB METAR and TAF weather

Enter ICAO airport designator
Station Type Date Time Source
KACB METAR 2021/04/13 06:55 UTC NOAA

KACB 130655Z AUTO 00000KT 10SM SCT028 SCT040 BKN048 08/06 A2989 RMK AO2 T00760062


Station Type Date Time Source
KACB Decoded METAR 2021/04/13 06:55 UTC NOAA

Bellaire, Antrim County Airport, MI, United States (KACB) 44-59-18N 085-11-54W
Apr 13, 2021 - 02:55 AM EDT / 2021.04.13 0655 UTC
Wind: Calm:0
Visibility: 10 mile(s):0
Sky conditions: mostly cloudy
Temperature: 45.7 F (7.6 C)
Dew Point: 43.2 F (6.2 C)
Relative Humidity: 90%
Pressure (altimeter): 29.89 in. Hg (1012 hPa)
ob: KACB 130655Z AUTO 00000KT 10SM SCT028 SCT040 BKN048 08/06 A2989 RMK AO2 T00760062
cycle: 7

Station Type Date Time Source
KACB TAF UTC NOAA

Error!

Example: see airport list